createdAt,value
2018-07-24T00:01:52.173Z,20.00
2018-07-24T00:06:46.732Z,20.10
2018-07-24T00:11:41.320Z,20.00
2018-07-24T00:16:36.011Z,19.90
2018-07-24T00:21:30.588Z,19.90
2018-07-24T00:26:25.185Z,19.90
2018-07-24T00:31:19.805Z,19.80
2018-07-24T00:36:14.421Z,19.60
2018-07-24T00:41:09.050Z,19.40
2018-07-24T00:46:03.673Z,19.50
2018-07-24T00:50:58.355Z,19.50
2018-07-24T00:55:53.065Z,19.30
2018-07-24T01:00:47.659Z,19.30
2018-07-24T01:05:42.289Z,19.20
2018-07-24T01:10:36.864Z,19.00
2018-07-24T01:15:31.456Z,18.90
2018-07-24T01:20:26.077Z,18.90
2018-07-24T01:25:20.609Z,18.80
2018-07-24T01:30:15.185Z,18.90
2018-07-24T01:35:09.777Z,18.90
2018-07-24T01:40:04.430Z,18.90
2018-07-24T01:44:59.176Z,18.80
2018-07-24T01:49:53.801Z,18.70
2018-07-24T01:54:48.341Z,18.70
2018-07-24T01:59:42.907Z,18.80
2018-07-24T02:04:37.467Z,18.80
2018-07-24T02:14:26.332Z,18.60
2018-07-24T02:19:20.933Z,18.60
2018-07-24T02:24:15.439Z,18.60
2018-07-24T02:29:10.038Z,18.70
2018-07-24T02:34:04.578Z,18.60
2018-07-24T02:38:59.122Z,18.50
2018-07-24T02:43:53.680Z,18.30
2018-07-24T02:48:48.245Z,18.30
2018-07-24T02:53:42.846Z,18.30
2018-07-24T02:58:37.449Z,18.30
2018-07-24T03:03:32.068Z,18.20
2018-07-24T03:08:26.693Z,18.20
2018-07-24T03:13:21.608Z,18.20
2018-07-24T03:18:16.160Z,18.20
2018-07-24T03:23:10.743Z,18.20
2018-07-24T03:28:05.341Z,18.20
2018-07-24T03:32:59.937Z,18.30
2018-07-24T03:37:54.518Z,18.20
2018-07-24T03:42:49.077Z,18.20
2018-07-24T03:47:43.729Z,18.30
2018-07-24T03:52:38.347Z,18.20
2018-07-24T03:57:32.970Z,18.30
2018-07-24T04:02:27.622Z,18.30
2018-07-24T04:07:22.159Z,18.40
2018-07-24T04:12:16.737Z,18.50
2018-07-24T04:17:11.288Z,18.70
2018-07-24T04:22:05.873Z,19.10
2018-07-24T04:27:00.491Z,20.00
2018-07-24T04:31:55.061Z,21.00
2018-07-24T04:41:44.141Z,22.80
2018-07-24T04:46:38.697Z,23.50
2018-07-24T04:51:33.395Z,23.70
2018-07-24T04:56:28.236Z,24.40
2018-07-24T05:01:22.789Z,24.30
2018-07-24T05:06:18.069Z,24.90
2018-07-24T05:11:12.620Z,25.20
2018-07-24T05:16:07.214Z,25.40
2018-07-24T05:21:01.875Z,24.10
2018-07-24T05:25:56.630Z,24.10
2018-07-24T05:30:51.056Z,25.20
2018-07-24T05:35:45.480Z,25.70
2018-07-24T05:40:39.952Z,26.40
2018-07-24T05:45:34.393Z,26.00
2018-07-24T05:50:28.860Z,26.70
2018-07-24T05:55:23.321Z,26.90
2018-07-24T06:00:17.887Z,27.40
2018-07-24T06:05:12.656Z,27.30
2018-07-24T06:10:07.208Z,27.50
2018-07-24T06:15:01.680Z,27.40
2018-07-24T06:19:56.137Z,27.70
2018-07-24T06:24:50.638Z,26.80
2018-07-24T06:29:45.974Z,26.80
2018-07-24T06:34:45.569Z,25.90
2018-07-24T06:39:40.255Z,24.80
2018-07-24T06:44:34.767Z,25.20
2018-07-24T06:49:32.779Z,25.50
2018-07-24T06:54:27.396Z,25.50
2018-07-24T06:59:22.454Z,25.80
2018-07-24T07:04:16.969Z,26.10
2018-07-24T07:09:12.252Z,25.60
2018-07-24T07:14:07.000Z,25.60
2018-07-24T07:19:01.457Z,25.20
2018-07-24T07:23:58.923Z,25.20
2018-07-24T07:28:53.465Z,25.30
2018-07-24T07:33:47.924Z,24.70
2018-07-24T07:38:42.801Z,25.50
2018-07-24T07:48:31.464Z,25.10
2018-07-24T07:53:26.108Z,25.50
2018-07-24T07:58:22.442Z,25.00
2018-07-24T08:03:17.386Z,25.40
2018-07-24T08:13:07.418Z,26.00
2018-07-24T08:23:01.864Z,26.90
2018-07-24T08:28:02.308Z,27.30
2018-07-24T08:32:57.656Z,27.10
2018-07-24T08:37:56.425Z,27.40
2018-07-24T08:42:51.110Z,27.80
2018-07-24T08:47:45.722Z,27.80
2018-07-24T08:52:51.512Z,27.20
2018-07-24T08:57:48.550Z,26.80
2018-07-24T09:02:43.241Z,27.50
2018-07-24T09:07:37.776Z,27.50
2018-07-24T09:12:32.249Z,27.00
2018-07-24T09:17:26.836Z,26.60
2018-07-24T09:22:21.308Z,27.10
2018-07-24T09:27:15.789Z,26.90
2018-07-24T09:32:10.849Z,27.00
2018-07-24T09:37:05.388Z,27.50
2018-07-24T09:42:00.764Z,27.20
2018-07-24T09:46:55.729Z,27.40
2018-07-24T09:51:52.313Z,27.50
2018-07-24T10:01:41.290Z,26.70
2018-07-24T10:06:35.893Z,27.20
2018-07-24T10:11:30.374Z,27.40
2018-07-24T10:16:25.430Z,27.80
2018-07-24T10:21:19.877Z,28.60
2018-07-24T10:26:18.121Z,28.90
2018-07-24T10:36:07.899Z,29.10
2018-07-24T10:41:02.456Z,29.40
2018-07-24T10:45:56.987Z,29.20
2018-07-24T10:55:46.461Z,29.40
2018-07-24T11:00:40.990Z,29.50
2018-07-24T11:05:35.469Z,29.80
2018-07-24T11:10:29.969Z,29.60
2018-07-24T11:15:25.918Z,30.00
2018-07-24T11:20:20.545Z,30.30
2018-07-24T11:25:16.200Z,30.50
2018-07-24T11:35:05.562Z,30.00
2018-07-24T11:40:00.165Z,30.40
2018-07-24T11:44:54.810Z,29.80
2018-07-24T11:49:49.328Z,30.10
2018-07-24T11:54:43.839Z,30.30
2018-07-24T11:59:38.314Z,30.70
2018-07-24T12:04:32.816Z,30.70
2018-07-24T12:09:27.408Z,30.90
2018-07-24T12:19:16.689Z,31.00
2018-07-24T12:24:11.586Z,31.30
2018-07-24T12:29:06.077Z,31.20
2018-07-24T12:38:54.858Z,31.10
2018-07-24T12:44:00.043Z,31.30
2018-07-24T12:53:48.856Z,31.60
2018-07-24T13:03:37.651Z,31.60
2018-07-24T13:08:32.165Z,31.60
2018-07-24T13:13:26.952Z,31.70
2018-07-24T13:18:22.533Z,31.50
2018-07-24T13:23:23.998Z,31.20
2018-07-24T13:28:19.665Z,31.00
2018-07-24T13:33:16.251Z,31.10
2018-07-24T13:38:10.812Z,31.00
2018-07-24T13:43:06.457Z,31.30
2018-07-24T13:48:01.084Z,31.30
2018-07-24T13:52:55.673Z,31.50
2018-07-24T13:57:51.197Z,31.50
2018-07-24T14:02:54.704Z,31.40
2018-07-24T14:07:51.252Z,31.40
2018-07-24T14:12:46.860Z,31.30
2018-07-24T14:17:44.786Z,31.40
2018-07-24T14:22:42.288Z,31.50
2018-07-24T14:27:38.725Z,31.50
2018-07-24T14:32:33.269Z,31.10
2018-07-24T14:37:27.782Z,31.10
2018-07-24T14:42:22.264Z,30.90
2018-07-24T14:47:16.749Z,31.00
2018-07-24T14:52:11.296Z,31.20
2018-07-24T14:57:06.869Z,31.30
2018-07-24T15:02:01.477Z,30.30
2018-07-24T15:06:56.047Z,30.70
2018-07-24T15:12:02.436Z,30.60
2018-07-24T15:16:57.176Z,31.00
2018-07-24T15:21:51.757Z,30.50
2018-07-24T15:26:46.266Z,30.70
2018-07-24T15:31:40.868Z,30.50
2018-07-24T15:36:35.439Z,30.30
2018-07-24T15:41:30.112Z,30.40
2018-07-24T15:46:24.765Z,30.20
2018-07-24T15:51:20.080Z,30.40
2018-07-24T15:56:15.045Z,30.40
2018-07-24T16:01:09.718Z,30.40
2018-07-24T16:06:04.427Z,30.30
2018-07-24T16:10:59.113Z,30.10
2018-07-24T16:15:53.779Z,30.30
2018-07-24T16:20:48.372Z,30.40
2018-07-24T16:25:43.092Z,30.60
2018-07-24T16:30:37.904Z,30.40
2018-07-24T16:35:33.129Z,30.20
2018-07-24T16:40:27.726Z,30.30
2018-07-24T16:45:22.712Z,30.30
2018-07-24T16:50:18.099Z,30.20
2018-07-24T16:55:12.902Z,30.10
2018-07-24T17:00:09.295Z,30.00
2018-07-24T17:05:04.023Z,30.00
2018-07-24T17:09:58.757Z,30.10
2018-07-24T17:19:47.866Z,29.90
2018-07-24T17:29:37.713Z,29.90
2018-07-24T17:34:32.261Z,29.60
2018-07-24T17:39:26.801Z,29.40
2018-07-24T17:44:21.593Z,29.60
2018-07-24T17:49:16.217Z,29.50
2018-07-24T17:54:11.004Z,29.40
2018-07-24T17:59:05.646Z,29.30
2018-07-24T18:08:54.525Z,29.20
2018-07-24T18:13:49.133Z,29.00
2018-07-24T18:18:43.841Z,29.00
2018-07-24T18:23:38.466Z,28.90
2018-07-24T18:28:33.045Z,28.80
2018-07-24T18:33:27.592Z,28.70
2018-07-24T18:38:22.200Z,28.40
2018-07-24T18:43:16.734Z,28.20
2018-07-24T18:48:11.299Z,28.00
2018-07-24T18:53:05.964Z,27.80
2018-07-24T18:58:00.756Z,27.70
2018-07-24T19:02:55.513Z,27.50
2018-07-24T19:07:50.071Z,27.30
2018-07-24T19:12:44.598Z,27.10
2018-07-24T19:17:39.186Z,27.10
2018-07-24T19:22:33.774Z,27.00
2018-07-24T19:27:28.311Z,26.90
2018-07-24T19:32:22.884Z,26.70
2018-07-24T19:37:17.433Z,26.60
2018-07-24T19:42:11.995Z,26.60
2018-07-24T19:47:06.822Z,26.50
2018-07-24T19:52:01.379Z,26.30
2018-07-24T19:56:56.051Z,26.30
2018-07-24T20:01:50.880Z,26.30
2018-07-24T20:06:45.628Z,26.10
2018-07-24T20:16:34.428Z,26.00
2018-07-24T20:21:28.993Z,25.90
2018-07-24T20:26:23.546Z,25.80
2018-07-24T20:31:18.193Z,25.70
2018-07-24T20:46:01.504Z,25.60
2018-07-24T20:50:56.112Z,25.50
2018-07-24T20:55:50.677Z,25.50
2018-07-24T21:00:45.242Z,25.50
2018-07-24T21:05:39.867Z,25.40
2018-07-24T21:10:34.458Z,25.30
2018-07-24T21:15:29.044Z,25.20
2018-07-24T21:20:23.656Z,25.10
2018-07-24T21:25:18.264Z,25.00
2018-07-24T21:30:12.838Z,24.90
2018-07-24T21:35:07.466Z,24.90
2018-07-24T21:40:02.036Z,24.90
2018-07-24T21:44:56.599Z,24.90
2018-07-24T21:49:51.157Z,24.80
2018-07-24T21:54:45.760Z,24.60
2018-07-24T21:59:40.358Z,24.60
2018-07-24T22:04:34.913Z,24.40
2018-07-24T22:09:29.525Z,24.20
2018-07-24T22:14:24.138Z,24.10
2018-07-24T22:19:18.765Z,24.00
2018-07-24T22:24:13.335Z,23.80
2018-07-24T22:29:07.869Z,23.80
2018-07-24T22:34:02.411Z,23.60
2018-07-24T22:38:56.971Z,23.50
2018-07-24T22:43:51.561Z,23.40
2018-07-24T22:48:46.076Z,23.30
2018-07-24T22:53:40.632Z,23.30
2018-07-24T22:58:35.201Z,23.20
2018-07-24T23:03:29.754Z,22.90
2018-07-24T23:08:24.309Z,23.00
2018-07-24T23:13:18.839Z,22.80
2018-07-24T23:23:08.029Z,22.40
2018-07-24T23:28:02.604Z,22.30
2018-07-24T23:32:57.175Z,22.40
2018-07-24T23:37:52.090Z,22.40
2018-07-24T23:42:46.676Z,22.30
2018-07-24T23:52:35.428Z,22.10
2018-07-24T23:57:29.968Z,22.00
